Time;durP1;ratioP1;P1;durP2;ratioP2;P2;SDS_P1;SDS_P2;PMS_P1;PMS_P2;Temp;Humidity;BMP_temperature;BMP_pressure;BME280_temperature;BME280_humidity;BME280_pressure;Samples;Min_cycle;Max_cycle;Signal;HPM_P1;HPM_P2
2021/11/17 02:27:12;;;;;;;17.48;9.68;;;;;;;;;;5108416;28;20104;-64
2021/11/17 02:29:47;;;;;;;19.25;11.30;;;;;;;;;;5107527;28;20445;-64
2021/11/17 02:32:15;;;;;;;104.07;14.13;;;;;;;;;;5107596;28;20075;-64
2021/11/17 02:34:43;;;;;;;65.10;12.60;;;;;;;;;;5108004;28;20430;-64
2021/11/17 02:37:12;;;;;;;21.10;12.55;;;;;;;;;;5110483;28;20035;-64
2021/11/17 02:39:41;;;;;;;19.75;11.90;;;;;;;;;;5109661;28;20075;-64
2021/11/17 02:42:14;;;;;;;28.77;12.20;;;;;;;;;;5108000;28;20115;-64
2021/11/17 02:44:49;;;;;;;21.60;12.30;;;;;;;;;;5109689;28;20019;-64
2021/11/17 02:47:38;;;;;;;49.22;12.45;;;;;;;;;;5107934;28;20077;-64
2021/11/17 02:50:13;;;;;;;19.27;11.75;;;;;;;;;;5107851;28;20054;-64
2021/11/17 02:52:39;;;;;;;21.67;11.95;;;;;;;;;;5107610;28;20024;-64
2021/11/17 02:55:18;;;;;;;18.13;11.32;;;;;;;;;;5109642;28;20030;-64
2021/11/17 02:57:47;;;;;;;17.85;10.10;;;;;;;;;;5110409;28;20154;-64
2021/11/17 03:00:32;;;;;;;21.27;11.40;;;;;;;;;;5107648;28;20453;-64
2021/11/17 03:03:07;;;;;;;23.20;12.25;;;;;;;;;;5107100;28;20092;-64
2021/11/17 03:05:42;;;;;;;28.40;11.73;;;;;;;;;;5108118;28;20063;-64
2021/11/17 03:08:11;;;;;;;23.33;12.20;;;;;;;;;;5097592;28;20120;-64
2021/11/17 03:10:46;;;;;;;23.00;11.57;;;;;;;;;;5107817;28;20103;-64
2021/11/17 03:13:12;;;;;;;21.25;11.05;;;;;;;;;;5108941;28;20046;-64
2021/11/17 03:16:03;;;;;;;18.42;10.00;;;;;;;;;;5111587;28;20550;-65
2021/11/17 03:18:44;;;;;;;301.75;16.52;;;;;;;;;;5110176;28;20043;-65
2021/11/17 03:21:13;;;;;;;190.18;14.38;;;;;;;;;;5107773;28;20036;-65
2021/11/17 03:23:54;;;;;;;50.80;13.07;;;;;;;;;;5106948;28;20487;-65
2021/11/17 03:26:39;;;;;;;26.98;12.38;;;;;;;;;;5104684;28;20044;-64
2021/11/17 03:29:14;;;;;;;22.98;11.70;;;;;;;;;;5111116;28;20111;-64
2021/11/17 03:31:49;;;;;;;18.90;10.77;;;;;;;;;;5111673;28;20088;-64
2021/11/17 03:34:18;;;;;;;15.70;9.32;;;;;;;;;;5113045;28;20375;-64
2021/11/17 03:37:02;;;;;;;252.82;14.90;;;;;;;;;;5113355;28;20043;-63
2021/11/17 03:39:47;;;;;;;25.20;11.02;;;;;;;;;;5112164;28;20028;-64
2021/11/17 03:42:16;;;;;;;22.77;12.93;;;;;;;;;;5111020;28;20028;-63
2021/11/17 03:44:45;;;;;;;21.42;11.63;;;;;;;;;;5111225;28;20059;-64
2021/11/17 03:47:11;;;;;;;18.38;10.82;;;;;;;;;;5104883;28;20851;-65
2021/11/17 03:49:53;;;;;;;22.50;11.80;;;;;;;;;;5111120;28;20016;-64
2021/11/17 03:52:31;;;;;;;24.42;13.15;;;;;;;;;;5112155;28;20031;-64
2021/11/17 03:54:57;;;;;;;;;;;;;;;;;;5110462;28;20490;-63
2021/11/17 03:57:38;;;;;;;21.08;10.40;;;;;;;;;;5110585;28;19912;-64
2021/11/17 04:00:14;;;;;;;22.27;11.13;;;;;;;;;;5110683;28;20012;-63
2021/11/17 04:02:42;;;;;;;22.08;9.55;;;;;;;;;;5110984;28;20027;-63
2021/11/17 04:05:18;;;;;;;17.58;9.23;;;;;;;;;;5110735;28;20259;-64
2021/11/17 04:07:44;;;;;;;21.65;8.18;;;;;;;;;;5111917;28;20080;-64
2021/11/17 04:10:10;;;;;;;15.73;7.68;;;;;;;;;;5113026;28;20028;-64
2021/11/17 04:12:37;;;;;;;64.85;10.85;;;;;;;;;;5111300;28;20028;-64
2021/11/17 04:15:12;;;;;;;336.67;18.10;;;;;;;;;;5113035;28;20016;-65
2021/11/17 04:17:57;;;;;;;41.30;12.10;;;;;;;;;;5110609;28;20096;-69
2021/11/17 04:20:58;;;;;;;19.58;10.27;;;;;;;;;;5109810;28;20035;-68
2021/11/17 04:23:27;;;;;;;19.80;9.85;;;;;;;;;;5050432;28;20105;-68
2021/11/17 04:26:13;;;;;;;17.95;9.75;;;;;;;;;;5089616;28;20521;-69
2021/11/17 04:28:42;;;;;;;19.73;9.60;;;;;;;;;;5100664;28;20020;-69
2021/11/17 04:31:08;;;;;;;20.40;9.50;;;;;;;;;;5112188;28;20047;-67
2021/11/17 04:33:44;;;;;;;16.73;8.63;;;;;;;;;;5111350;28;20024;-66
2021/11/17 04:36:22;;;;;;;20.10;7.20;;;;;;;;;;5108974;28;20023;-66
2021/11/17 04:39:05;;;;;;;20.10;7.22;;;;;;;;;;5110881;28;20028;-67
2021/11/17 04:41:41;;;;;;;37.72;9.95;;;;;;;;;;5110642;28;20036;-66
2021/11/17 04:44:25;;;;;;;94.93;12.57;;;;;;;;;;5109406;28;20055;-66
2021/11/17 04:47:02;;;;;;;178.23;14.65;;;;;;;;;;5111278;28;20077;-66
2021/11/17 04:49:40;;;;;;;69.20;12.07;;;;;;;;;;5098608;28;20506;-67
2021/11/17 04:52:06;;;;;;;;;;;;;;;;;;5112865;28;20031;-64
2021/11/17 04:54:39;;;;;;;21.42;11.20;;;;;;;;;;5110229;28;20291;-65
2021/11/17 04:57:23;;;;;;;19.25;10.88;;;;;;;;;;5110019;28;20032;-66
2021/11/17 05:00:08;;;;;;;15.95;9.32;;;;;;;;;;5109183;28;20077;-66
2021/11/17 05:03:00;;;;;;;18.55;9.10;;;;;;;;;;5109115;28;20509;-65
2021/11/17 05:05:31;;;;;;;15.85;8.00;;;;;;;;;;5079557;28;20051;-66
2021/11/17 05:08:06;;;;;;;16.05;7.70;;;;;;;;;;5109581;28;20431;-67
2021/11/17 05:11:02;;;;;;;11.93;7.60;;;;;;;;;;5093546;28;20032;-66
2021/11/17 05:13:28;;;;;;;13.98;8.18;;;;;;;;;;5079752;28;20047;-66
2021/11/17 05:16:12;;;;;;;23.55;9.43;;;;;;;;;;5108469;28;20015;-66
2021/11/17 05:19:01;;;;;;;14.82;8.20;;;;;;;;;;5110854;28;20040;-66
2021/11/17 05:21:48;;;;;;;16.67;10.20;;;;;;;;;;5063024;28;20081;-66
2021/11/17 05:24:29;;;;;;;20.73;10.27;;;;;;;;;;5078898;28;20054;-67
2021/11/17 05:27:14;;;;;;;20.05;10.23;;;;;;;;;;5109353;28;20098;-66
2021/11/17 05:29:42;;;;;;;21.23;10.63;;;;;;;;;;5108845;28;20051;-66
2021/11/17 05:32:15;;;;;;;18.25;10.60;;;;;;;;;;5108921;28;20123;-66
2021/11/17 05:34:41;;;;;;;19.75;10.18;;;;;;;;;;5101688;28;20035;-66
2021/11/17 05:37:07;;;;;;;16.80;9.80;;;;;;;;;;5111270;28;20058;-67
2021/11/17 05:39:36;;;;;;;15.90;9.95;;;;;;;;;;5109729;28;20024;-66
2021/11/17 05:42:11;;;;;;;15.45;9.02;;;;;;;;;;5108770;28;20035;-66
2021/11/17 05:44:46;;;;;;;15.25;8.57;;;;;;;;;;5110702;28;20073;-66
2021/11/17 05:47:32;;;;;;;15.70;9.02;;;;;;;;;;5108988;28;20475;-67
2021/11/17 05:50:14;;;;;;;14.05;8.75;;;;;;;;;;5108371;28;20069;-67
2021/11/17 05:52:43;;;;;;;16.10;8.85;;;;;;;;;;5094215;28;20024;-65
2021/11/17 05:55:12;;;;;;;18.42;10.35;;;;;;;;;;5110503;28;20035;-66
2021/11/17 05:57:57;;;;;;;21.40;12.50;;;;;;;;;;5110082;28;20039;-66
2021/11/17 06:00:25;;;;;;;20.35;12.05;;;;;;;;;;5108988;28;20034;-65
2021/11/17 06:02:51;;;;;;;25.70;12.43;;;;;;;;;;5107949;28;20027;-64
2021/11/17 06:05:17;;;;;;;17.48;10.55;;;;;;;;;;5108345;28;20073;-66
2021/11/17 06:07:43;;;;;;;19.52;10.45;;;;;;;;;;5108546;28;20030;-66
2021/11/17 06:10:11;;;;;;;18.83;9.98;;;;;;;;;;5110662;28;20034;-66
2021/11/17 06:12:38;;;;;;;22.33;11.65;;;;;;;;;;5109647;28;20023;-66
2021/11/17 06:15:05;;;;;;;15.77;9.95;;;;;;;;;;5110316;28;20023;-66
2021/11/17 06:17:31;;;;;;;19.48;12.77;;;;;;;;;;5106607;28;20110;-66
2021/11/17 06:19:58;;;;;;;20.27;12.65;;;;;;;;;;5101054;28;20016;-66
2021/11/17 06:22:27;;;;;;;23.90;13.18;;;;;;;;;;5108231;28;20027;-66
2021/11/17 06:24:54;;;;;;;20.23;11.93;;;;;;;;;;5107566;28;20023;-66
2021/11/17 06:27:21;;;;;;;189.13;14.32;;;;;;;;;;5108136;28;20106;-66
2021/11/17 06:29:49;;;;;;;18.00;10.90;;;;;;;;;;5107840;28;20100;-66
2021/11/17 06:32:16;;;;;;;25.00;11.95;;;;;;;;;;5107570;28;20058;-66
2021/11/17 06:34:45;;;;;;;23.13;13.20;;;;;;;;;;5101085;28;20115;-66
2021/11/17 06:37:15;;;;;;;19.52;11.77;;;;;;;;;;5110314;28;20433;-68
2021/11/17 06:39:43;;;;;;;18.65;12.25;;;;;;;;;;5109644;28;20031;-66
2021/11/17 06:42:11;;;;;;;21.33;11.30;;;;;;;;;;5107667;28;20016;-66
2021/11/17 06:44:38;;;;;;;18.92;10.75;;;;;;;;;;5109998;28;20057;-66
2021/11/17 06:47:04;;;;;;;17.75;9.48;;;;;;;;;;5107189;28;20012;-66
2021/11/17 06:49:30;;;;;;;19.05;10.35;;;;;;;;;;5107729;28;20032;-66
2021/11/17 06:51:57;;;;;;;21.58;10.95;;;;;;;;;;5111079;28;20020;-66
2021/11/17 06:54:23;;;;;;;16.90;10.05;;;;;;;;;;5107868;28;20441;-65
2021/11/17 06:56:49;;;;;;;18.63;10.75;;;;;;;;;;5107755;28;20036;-65
2021/11/17 06:59:14;;;;;;;17.73;9.98;;;;;;;;;;5108972;28;20055;-64
2021/11/17 07:01:41;;;;;;;21.90;9.55;;;;;;;;;;5111924;28;20431;-64
2021/11/17 07:04:07;;;;;;;18.50;9.75;;;;;;;;;;5113916;28;20026;-64
2021/11/17 07:06:33;;;;;;;15.82;10.48;;;;;;;;;;5112995;28;20016;-65
2021/11/17 07:08:59;;;;;;;17.50;10.07;;;;;;;;;;5109973;28;20027;-65
2021/11/17 07:11:26;;;;;;;17.95;11.57;;;;;;;;;;5112093;28;20065;-65
2021/11/17 07:13:52;;;;;;;19.98;12.48;;;;;;;;;;5110492;28;20036;-65
2021/11/17 07:16:19;;;;;;;19.13;10.98;;;;;;;;;;5112741;28;22662;-65
2021/11/17 07:18:45;;;;;;;18.05;10.20;;;;;;;;;;5112520;28;20027;-65
2021/11/17 07:21:11;;;;;;;17.83;10.82;;;;;;;;;;5111577;28;20023;-66
2021/11/17 07:23:37;;;;;;;21.38;9.98;;;;;;;;;;5111517;28;20023;-65
2021/11/17 07:26:04;;;;;;;15.95;9.55;;;;;;;;;;5110133;27;20020;-65
2021/11/17 07:28:30;;;;;;;20.90;10.25;;;;;;;;;;5110965;28;20039;-65
2021/11/17 07:30:56;;;;;;;17.27;9.73;;;;;;;;;;5113666;28;20560;-65
2021/11/17 07:33:22;;;;;;;20.67;10.35;;;;;;;;;;5110357;28;20022;-65
2021/11/17 07:35:50;;;;;;;14.60;9.57;;;;;;;;;;5110491;28;20153;-65
2021/11/17 07:38:18;;;;;;;21.60;9.60;;;;;;;;;;5109758;28;20066;-65
2021/11/17 07:40:44;;;;;;;;;;;;;;;;;;5109970;28;20024;-62
2021/11/17 07:43:11;;;;;;;14.90;7.97;;;;;;;;;;5111490;28;19904;-65
2021/11/17 07:45:41;;;;;;;15.73;8.23;;;;;;;;;;5113217;28;20509;-65
2021/11/17 07:48:07;;;;;;;16.92;9.65;;;;;;;;;;5109212;28;20023;-64
2021/11/17 07:50:34;;;;;;;14.38;9.70;;;;;;;;;;5104475;28;20485;-65
2021/11/17 07:53:00;;;;;;;17.33;10.60;;;;;;;;;;5111851;28;20037;-65
2021/11/17 07:55:26;;;;;;;24.08;10.32;;;;;;;;;;5110664;28;20024;-65
2021/11/17 07:57:53;;;;;;;17.35;10.73;;;;;;;;;;5113814;28;20494;-64
2021/11/17 08:00:21;;;;;;;19.52;11.07;;;;;;;;;;5109707;28;20085;-64
2021/11/17 08:02:47;;;;;;;16.73;10.27;;;;;;;;;;5112019;28;20024;-64
2021/11/17 08:05:14;;;;;;;17.98;10.15;;;;;;;;;;5110795;28;20023;-64
2021/11/17 08:07:41;;;;;;;20.75;10.75;;;;;;;;;;5110248;28;20059;-65
2021/11/17 08:10:14;;;;;;;19.73;11.82;;;;;;;;;;5113291;28;20035;-65
2021/11/17 08:12:40;;;;;;;16.85;10.55;;;;;;;;;;5111739;28;20053;-64
2021/11/17 08:15:06;;;;;;;16.33;11.38;;;;;;;;;;5112477;28;20041;-64
2021/11/17 08:17:33;;;;;;;20.55;10.77;;;;;;;;;;5110002;28;20383;-64
2021/11/17 08:19:59;;;;;;;15.55;9.25;;;;;;;;;;5110778;28;20027;-65
2021/11/17 08:22:26;;;;;;;17.02;9.40;;;;;;;;;;5110737;28;20023;-64
2021/11/17 08:24:52;;;;;;;17.08;9.60;;;;;;;;;;5113709;28;20027;-64
2021/11/17 08:27:19;;;;;;;16.90;10.43;;;;;;;;;;5110337;28;20384;-65
2021/11/17 08:29:49;;;;;;;17.17;10.20;;;;;;;;;;5109962;28;20016;-64
2021/11/17 08:32:16;;;;;;;18.80;10.88;;;;;;;;;;5109981;28;20046;-64
2021/11/17 08:34:42;;;;;;;17.50;11.80;;;;;;;;;;5109850;28;20128;-64
2021/11/17 08:37:09;;;;;;;19.65;12.90;;;;;;;;;;5112822;28;20081;-65
2021/11/17 08:39:36;;;;;;;20.23;13.30;;;;;;;;;;5111413;28;20020;-65
2021/11/17 08:42:02;;;;;;;20.60;13.02;;;;;;;;;;5110119;28;20023;-65
2021/11/17 08:44:28;;;;;;;18.70;12.68;;;;;;;;;;5111322;28;20364;-66
2021/11/17 08:46:54;;;;;;;17.83;11.50;;;;;;;;;;5110155;28;20027;-64
2021/11/17 08:49:21;;;;;;;16.00;10.35;;;;;;;;;;5111189;28;20023;-66
2021/11/17 08:51:47;;;;;;;17.10;10.88;;;;;;;;;;5112694;28;20031;-66
2021/11/17 08:54:13;;;;;;;15.98;9.73;;;;;;;;;;5109516;28;20081;-66
2021/11/17 08:56:39;;;;;;;20.30;11.00;;;;;;;;;;5110059;28;20104;-66
2021/11/17 08:59:05;;;;;;;18.10;11.05;;;;;;;;;;5109281;28;20090;-66
2021/11/17 09:01:33;;;;;;;22.92;11.52;;;;;;;;;;5109651;28;20031;-65
2021/11/17 09:04:06;;;;;;;16.97;10.73;;;;;;;;;;5112908;28;20019;-65
2021/11/17 09:06:32;;;;;;;15.77;10.55;;;;;;;;;;5112192;28;20027;-66
2021/11/17 09:09:04;;;;;;;21.80;10.50;;;;;;;;;;5109304;28;20467;-66
2021/11/17 09:11:30;;;;;;;15.63;9.82;;;;;;;;;;5109816;28;20415;-66
2021/11/17 09:13:56;;;;;;;15.45;9.93;;;;;;;;;;5111790;28;20059;-66
2021/11/17 09:16:22;;;;;;;15.75;9.48;;;;;;;;;;5110268;28;20024;-65
2021/11/17 09:18:50;;;;;;;12.63;8.25;;;;;;;;;;5111605;28;20028;-65
2021/11/17 09:21:17;;;;;;;12.70;7.82;;;;;;;;;;5109509;28;20474;-65
2021/11/17 09:23:44;;;;;;;14.23;8.85;;;;;;;;;;5106982;28;20031;-65
2021/11/17 09:26:11;;;;;;;17.55;9.40;;;;;;;;;;5109265;28;20506;-65
2021/11/17 09:28:37;;;;;;;15.32;9.40;;;;;;;;;;5109136;28;20038;-65
2021/11/17 09:31:04;;;;;;;14.30;8.80;;;;;;;;;;5111030;28;20040;-65
2021/11/17 09:33:30;;;;;;;12.85;8.68;;;;;;;;;;5111169;28;20126;-65
2021/11/17 09:35:56;;;;;;;12.93;6.93;;;;;;;;;;5109147;28;20027;-65
2021/11/17 09:38:23;;;;;;;10.25;5.28;;;;;;;;;;5109325;28;20035;-65
2021/11/17 09:40:51;;;;;;;11.20;7.10;;;;;;;;;;5109337;28;20449;-65
2021/11/17 09:43:19;;;;;;;10.50;6.35;;;;;;;;;;5110011;28;20055;-65
2021/11/17 09:45:47;;;;;;;12.15;6.68;;;;;;;;;;5112224;28;20053;-65
2021/11/17 09:48:14;;;;;;;9.38;6.05;;;;;;;;;;5108439;28;20027;-66
2021/11/17 09:50:42;;;;;;;12.82;6.97;;;;;;;;;;5103072;28;20077;-63
2021/11/17 09:53:14;;;;;;;13.43;7.25;;;;;;;;;;5108024;28;20514;-66
2021/11/17 09:55:45;;;;;;;11.77;7.05;;;;;;;;;;5108641;28;20069;-65
2021/11/17 09:58:17;;;;;;;12.23;7.32;;;;;;;;;;5110545;28;20045;-66
2021/11/17 10:00:46;;;;;;;15.50;6.70;;;;;;;;;;5110381;28;20046;-66
2021/11/17 10:03:17;;;;;;;10.52;6.88;;;;;;;;;;5108700;28;20019;-66
2021/11/17 10:11:50;;;;;;;12.88;6.55;;;;;;;;;;5098399;28;20019;-64
2021/11/17 10:14:19;;;;;;;13.13;6.63;;;;;;;;;;5109115;28;20035;-63
2021/11/17 10:16:45;;;;;;;10.18;6.60;;;;;;;;;;5107297;28;20059;-65
2021/11/17 10:19:11;;;;;;;9.13;5.57;;;;;;;;;;5111047;28;20400;-64
2021/11/17 10:21:38;;;;;;;10.02;5.47;;;;;;;;;;5109458;28;20032;-63
2021/11/17 10:24:20;;;;;;;8.77;4.60;;;;;;;;;;5105833;28;20352;-63
2021/11/17 10:26:50;;;;;;;11.80;5.15;;;;;;;;;;5108263;28;20027;-63
2021/11/17 10:29:42;;;;;;;8.73;5.65;;;;;;;;;;5108280;28;20027;-65
2021/11/17 10:32:14;;;;;;;10.05;5.60;;;;;;;;;;5077107;28;20079;-67
2021/11/17 10:34:55;;;;;;;8.63;5.10;;;;;;;;;;5107704;28;20979;-65
2021/11/17 10:37:24;;;;;;;9.65;4.97;;;;;;;;;;5108440;28;20047;-66
2021/11/17 10:39:51;;;;;;;9.32;4.25;;;;;;;;;;5110767;28;20442;-63
2021/11/17 10:42:20;;;;;;;7.35;3.60;;;;;;;;;;5104131;28;20041;-66
2021/11/17 10:45:22;;;;;;;7.13;3.88;;;;;;;;;;5110175;28;20027;-65
2021/11/17 10:47:49;;;;;;;7.97;4.15;;;;;;;;;;5107042;28;20027;-65
2021/11/17 10:50:15;;;;;;;10.05;4.93;;;;;;;;;;5107749;28;20036;-65
2021/11/17 10:52:54;;;;;;;8.88;5.00;;;;;;;;;;5107988;28;20423;-65
2021/11/17 10:55:22;;;;;;;10.07;5.45;;;;;;;;;;5109312;28;20098;-65
2021/11/17 10:57:48;;;;;;;;;;;;;;;;;;5110249;28;20110;-63
2021/11/17 11:00:16;;;;;;;8.13;4.20;;;;;;;;;;5107816;28;19942;-65
2021/11/17 11:02:42;;;;;;;8.55;4.68;;;;;;;;;;5107929;28;20023;-65
2021/11/17 11:05:11;;;;;;;8.85;5.28;;;;;;;;;;5107884;28;20493;-65
2021/11/17 11:07:41;;;;;;;11.35;5.90;;;;;;;;;;5107458;28;20024;-65
2021/11/17 11:10:16;;;;;;;10.88;5.78;;;;;;;;;;5109756;28;20542;-67
2021/11/17 11:12:44;;;;;;;14.38;7.53;;;;;;;;;;5109281;28;20038;-64
2021/11/17 11:15:10;;;;;;;;;;;;;;;;;;5110038;28;20085;-64
2021/11/17 11:17:45;;;;;;;15.15;8.68;;;;;;;;;;5106742;28;19916;-65
2021/11/17 11:20:18;;;;;;;15.85;9.18;;;;;;;;;;5107427;28;20024;-63
2021/11/17 11:22:58;;;;;;;15.75;8.95;;;;;;;;;;5107507;28;20085;-64
2021/11/17 11:25:45;;;;;;;19.58;11.70;;;;;;;;;;5107990;28;20027;-66
2021/11/17 11:28:20;;;;;;;18.70;11.27;;;;;;;;;;5107456;28;20050;-64
2021/11/17 11:30:47;;;;;;;23.30;12.48;;;;;;;;;;5109508;28;20527;-63
2021/11/17 11:33:19;;;;;;;21.15;13.55;;;;;;;;;;5107554;28;20076;-64
2021/11/17 11:36:04;;;;;;;23.17;13.27;;;;;;;;;;5105622;28;20032;-64
2021/11/17 11:38:32;;;;;;;25.88;13.60;;;;;;;;;;5094646;28;20487;-65
2021/11/17 11:41:00;;;;;;;24.15;14.13;;;;;;;;;;5091791;28;20062;-65
2021/11/17 11:43:26;;;;;;;25.67;14.48;;;;;;;;;;5105978;28;20024;-63
2021/11/17 11:45:55;;;;;;;26.83;16.20;;;;;;;;;;5110711;28;20111;-63
2021/11/17 11:48:24;;;;;;;29.10;16.00;;;;;;;;;;5108778;28;20471;-63
2021/11/17 11:50:52;;;;;;;28.38;16.38;;;;;;;;;;5092837;28;20035;-64
2021/11/17 11:53:50;;;;;;;23.75;14.90;;;;;;;;;;5105187;28;20028;-64
2021/11/17 11:56:19;;;;;;;25.92;14.15;;;;;;;;;;5109887;28;20031;-63
2021/11/17 11:58:45;;;;;;;23.50;13.57;;;;;;;;;;5105770;28;20146;-62
2021/11/17 12:01:11;;;;;;;26.45;14.10;;;;;;;;;;5104562;28;20095;-62
2021/11/17 12:03:44;;;;;;;24.85;14.32;;;;;;;;;;5093956;28;20031;-66
2021/11/17 12:06:16;;;;;;;24.17;15.00;;;;;;;;;;5106179;28;20023;-63
2021/11/17 12:08:48;;;;;;;24.95;15.02;;;;;;;;;;5107946;28;20045;-63
2021/11/17 12:11:21;;;;;;;21.65;13.02;;;;;;;;;;5108855;28;20039;-64
2021/11/17 12:13:58;;;;;;;26.90;15.07;;;;;;;;;;5108612;28;20022;-64
2021/11/17 12:16:30;;;;;;;20.67;12.77;;;;;;;;;;5110139;28;20032;-63
2021/11/17 12:18:59;;;;;;;20.73;12.05;;;;;;;;;;5107056;28;20268;-63
2021/11/17 12:21:31;;;;;;;18.80;11.48;;;;;;;;;;5110144;28;20471;-64
2021/11/17 12:24:06;;;;;;;22.17;13.63;;;;;;;;;;5108500;28;20047;-65
2021/11/17 12:26:34;;;;;;;22.88;14.10;;;;;;;;;;5092756;28;20038;-65
2021/11/17 12:29:12;;;;;;;23.00;14.13;;;;;;;;;;5107955;28;20023;-65
2021/11/17 12:31:40;;;;;;;24.38;14.13;;;;;;;;;;5093362;28;20446;-65
2021/11/17 12:34:16;;;;;;;22.98;14.60;;;;;;;;;;5110362;28;20054;-65
2021/11/17 12:36:57;;;;;;;24.05;13.75;;;;;;;;;;5110895;28;20383;-65
2021/11/17 12:39:31;;;;;;;20.92;13.52;;;;;;;;;;5086031;28;20024;-65
2021/11/17 12:42:00;;;;;;;20.35;12.85;;;;;;;;;;5104413;28;20031;-65
2021/11/17 12:44:30;;;;;;;22.10;15.15;;;;;;;;;;5110360;28;20035;-64
2021/11/17 12:46:59;;;;;;;29.45;16.70;;;;;;;;;;5108171;28;20111;-65
2021/11/17 12:49:28;;;;;;;27.48;16.15;;;;;;;;;;5108874;28;20088;-65
2021/11/17 12:52:00;;;;;;;28.10;16.58;;;;;;;;;;5110252;28;20717;-64
2021/11/17 12:54:29;;;;;;;28.48;16.30;;;;;;;;;;5108755;28;20039;-64
2021/11/17 12:57:02;;;;;;;25.63;15.75;;;;;;;;;;5109834;28;20035;-68
2021/11/17 12:59:42;;;;;;;26.90;15.88;;;;;;;;;;5109325;28;20069;-66
2021/11/17 13:02:23;;;;;;;24.40;14.50;;;;;;;;;;5108903;28;20036;-66
2021/11/17 13:05:12;;;;;;;25.30;14.68;;;;;;;;;;5109731;28;20165;-67
2021/11/17 13:07:43;;;;;;;24.50;14.68;;;;;;;;;;5094906;28;20541;-65
2021/11/17 13:10:09;;;;;;;25.85;14.50;;;;;;;;;;5111979;28;20042;-65
2021/11/17 13:12:39;;;;;;;23.98;13.70;;;;;;;;;;5109750;28;20153;-64
2021/11/17 13:15:10;;;;;;;19.00;11.88;;;;;;;;;;5111319;28;20411;-64
2021/11/17 13:17:42;;;;;;;21.80;13.45;;;;;;;;;;5108132;28;20035;-66
2021/11/17 13:20:14;;;;;;;20.35;12.70;;;;;;;;;;5109201;28;20024;-64
2021/11/17 13:22:46;;;;;;;21.13;12.50;;;;;;;;;;5109301;28;20038;-61
2021/11/17 13:25:31;;;;;;;22.55;12.30;;;;;;;;;;5111020;28;20030;-65
2021/11/17 13:28:05;;;;;;;18.40;11.73;;;;;;;;;;5108642;28;20028;-64
2021/11/17 13:30:39;;;;;;;17.08;11.60;;;;;;;;;;5111438;28;20028;-64
2021/11/17 13:33:17;;;;;;;17.33;10.73;;;;;;;;;;5109410;28;20054;-66
2021/11/17 13:35:43;;;;;;;18.80;11.50;;;;;;;;;;5103981;28;20031;-63
2021/11/17 13:38:23;;;;;;;17.73;11.60;;;;;;;;;;5108277;28;20114;-63
2021/11/17 13:40:53;;;;;;;19.08;12.27;;;;;;;;;;5109115;28;20086;-64
2021/11/17 13:43:20;;;;;;;22.00;11.23;;;;;;;;;;5111103;28;20031;-64
2021/11/17 13:45:47;;;;;;;19.92;12.05;;;;;;;;;;5111812;28;20570;-63
2021/11/17 13:48:15;;;;;;;22.02;11.65;;;;;;;;;;5108875;28;20046;-65
2021/11/17 13:50:41;;;;;;;19.93;11.47;;;;;;;;;;5108164;28;20016;-64
2021/11/17 13:53:09;;;;;;;19.50;11.40;;;;;;;;;;5109757;28;20283;-64
2021/11/17 13:55:37;;;;;;;20.73;11.48;;;;;;;;;;5108770;28;20023;-64
2021/11/17 13:58:05;;;;;;;24.42;13.07;;;;;;;;;;5111681;28;20384;-63
2021/11/17 14:00:31;;;;;;;20.58;12.40;;;;;;;;;;5110232;28;20047;-62
2021/11/17 14:02:58;;;;;;;20.83;12.40;;;;;;;;;;5108691;28;20545;-62
2021/11/17 14:05:25;;;;;;;21.02;13.43;;;;;;;;;;5108272;28;20023;-62
2021/11/17 14:07:51;;;;;;;22.17;12.57;;;;;;;;;;5108772;28;20045;-62
2021/11/17 14:10:18;;;;;;;21.60;12.70;;;;;;;;;;5109375;28;20077;-62
2021/11/17 14:12:45;;;;;;;21.15;13.57;;;;;;;;;;5110395;28;20866;-62
2021/11/17 14:15:11;;;;;;;24.27;13.25;;;;;;;;;;5110841;28;20016;-62
2021/11/17 14:17:38;;;;;;;20.10;12.55;;;;;;;;;;5108089;28;20063;-62
2021/11/17 14:20:05;;;;;;;20.33;12.13;;;;;;;;;;5099024;28;20070;-62
2021/11/17 14:22:31;;;;;;;20.17;12.20;;;;;;;;;;5105581;28;20026;-62
2021/11/17 14:25:06;;;;;;;21.05;12.25;;;;;;;;;;5111045;28;20024;-63
2021/11/17 14:27:32;;;;;;;19.13;12.02;;;;;;;;;;5104596;28;20392;-64
2021/11/17 14:29:59;;;;;;;18.58;11.82;;;;;;;;;;5104731;28;20031;-63
2021/11/17 14:32:35;;;;;;;20.98;12.82;;;;;;;;;;5107652;28;20519;-66
2021/11/17 14:35:02;;;;;;;22.25;13.45;;;;;;;;;;5108334;28;20601;-64
2021/11/17 14:37:29;;;;;;;20.83;12.73;;;;;;;;;;5108222;28;20040;-64
2021/11/17 14:39:55;;;;;;;24.63;13.10;;;;;;;;;;5107232;28;20128;-65
2021/11/17 14:42:21;;;;;;;23.67;13.15;;;;;;;;;;5108060;28;20034;-64
2021/11/17 14:44:47;;;;;;;20.77;12.90;;;;;;;;;;5109796;28;20340;-65
2021/11/17 14:47:15;;;;;;;23.75;14.05;;;;;;;;;;5107938;28;20035;-64
2021/11/17 14:49:42;;;;;;;26.58;14.18;;;;;;;;;;5106011;28;20512;-64
2021/11/17 14:52:13;;;;;;;28.25;14.60;;;;;;;;;;5110493;28;20039;-64
2021/11/17 14:54:40;;;;;;;24.60;14.30;;;;;;;;;;5104499;28;20059;-64
2021/11/17 14:57:06;;;;;;;24.77;13.40;;;;;;;;;;5104731;28;20046;-63
2021/11/17 14:59:33;;;;;;;27.52;14.27;;;;;;;;;;5107775;28;20558;-63
2021/11/17 15:01:59;;;;;;;24.38;14.52;;;;;;;;;;5107937;28;20059;-63
2021/11/17 15:04:25;;;;;;;22.40;13.48;;;;;;;;;;5108226;28;20073;-63
2021/11/17 15:06:51;;;;;;;25.83;15.07;;;;;;;;;;5110626;28;20059;-63
2021/11/17 15:09:18;;;;;;;25.88;15.60;;;;;;;;;;5107617;28;20491;-63
2021/11/17 15:11:47;;;;;;;24.55;14.63;;;;;;;;;;5107737;28;20077;-64
2021/11/17 15:14:13;;;;;;;26.25;15.10;;;;;;;;;;5109369;28;20333;-64
2021/11/17 15:16:39;;;;;;;28.08;16.35;;;;;;;;;;5107397;28;20484;-65
2021/11/17 15:19:05;;;;;;;31.13;16.60;;;;;;;;;;5098179;28;20028;-65
2021/11/17 15:21:31;;;;;;;35.13;19.98;;;;;;;;;;5110010;28;20430;-65
2021/11/17 15:23:57;;;;;;;31.52;18.17;;;;;;;;;;5110266;28;20055;-66
2021/11/17 15:26:23;;;;;;;35.75;18.88;;;;;;;;;;5111732;28;20482;-67
2021/11/17 15:28:52;;;;;;;31.23;18.52;;;;;;;;;;5111529;28;20040;-64
2021/11/17 15:31:20;;;;;;;32.95;18.52;;;;;;;;;;5113060;28;20463;-62
2021/11/17 15:33:46;;;;;;;30.33;17.25;;;;;;;;;;5113062;28;20028;-64
2021/11/17 15:36:13;;;;;;;35.33;20.30;;;;;;;;;;5111465;28;20478;-63
2021/11/17 15:38:40;;;;;;;41.80;22.88;;;;;;;;;;5111471;28;20088;-66
2021/11/17 15:41:08;;;;;;;38.27;21.20;;;;;;;;;;5111281;28;20066;-64
2021/11/17 15:43:35;;;;;;;41.22;22.90;;;;;;;;;;5113269;28;20540;-64
2021/11/17 15:46:01;;;;;;;44.60;24.45;;;;;;;;;;5114189;28;20080;-65
2021/11/17 15:48:27;;;;;;;43.35;23.92;;;;;;;;;;5111471;28;20027;-63
2021/11/17 15:51:01;;;;;;;43.22;24.30;;;;;;;;;;5111336;28;20007;-65
2021/11/17 15:53:27;;;;;;;41.10;21.63;;;;;;;;;;5109790;28;20035;-65
2021/11/17 15:55:54;;;;;;;40.17;20.85;;;;;;;;;;5111033;28;20020;-66
2021/11/17 15:58:20;;;;;;;36.58;19.77;;;;;;;;;;5112166;28;20050;-65
2021/11/17 16:00:48;;;;;;;38.58;20.58;;;;;;;;;;5113216;28;20728;-66
2021/11/17 16:03:16;;;;;;;34.38;19.08;;;;;;;;;;5111799;28;20028;-66
2021/11/17 16:05:42;;;;;;;46.30;21.50;;;;;;;;;;5110716;28;20110;-67
2021/11/17 16:08:08;;;;;;;38.58;21.02;;;;;;;;;;5110690;28;20115;-68
2021/11/17 16:10:34;;;;;;;45.67;25.52;;;;;;;;;;5110809;28;20060;-66
2021/11/17 16:13:00;;;;;;;42.33;23.55;;;;;;;;;;5112585;28;20030;-63
2021/11/17 16:15:28;;;;;;;35.78;19.27;;;;;;;;;;5113118;28;20483;-66
2021/11/17 16:17:54;;;;;;;38.30;20.42;;;;;;;;;;5110308;28;20041;-68
2021/11/17 16:20:22;;;;;;;33.92;17.90;;;;;;;;;;5110372;28;20129;-64
2021/11/17 16:25:33;;;;;;;36.63;18.75;;;;;;;;;;5110037;28;20122;-64
2021/11/17 16:28:01;;;;;;;37.92;20.50;;;;;;;;;;5109721;28;20023;-62
2021/11/17 16:30:27;;;;;;;38.15;19.90;;;;;;;;;;5110457;28;20055;-61
2021/11/17 16:32:53;;;;;;;40.95;21.83;;;;;;;;;;5109704;28;20058;-62
2021/11/17 16:35:22;;;;;;;40.10;19.73;;;;;;;;;;5110315;28;20024;-63
2021/11/17 16:37:50;;;;;;;41.90;21.35;;;;;;;;;;5109788;28;20032;-64
2021/11/17 16:40:17;;;;;;;49.85;25.73;;;;;;;;;;5111678;27;20028;-64
2021/11/17 16:42:43;;;;;;;54.22;24.83;;;;;;;;;;5113124;28;20073;-64
2021/11/17 16:45:10;;;;;;;55.67;27.63;;;;;;;;;;5110772;28;20381;-65
2021/11/17 16:47:38;;;;;;;57.42;27.98;;;;;;;;;;5109005;28;20080;-65
2021/11/17 16:50:04;;;;;;;51.50;27.42;;;;;;;;;;5109050;28;20015;-66
2021/11/17 16:52:32;;;;;;;56.28;28.15;;;;;;;;;;5109541;28;20036;-65
2021/11/17 16:55:03;;;;;;;45.50;24.70;;;;;;;;;;5107044;28;20146;-65
2021/11/17 16:57:30;;;;;;;51.05;25.50;;;;;;;;;;5109370;28;20766;-65
2021/11/17 16:59:56;;;;;;;36.25;20.35;;;;;;;;;;5109487;28;20020;-66
2021/11/17 17:02:23;;;;;;;37.60;18.92;;;;;;;;;;5109762;28;20496;-66
2021/11/17 17:04:49;;;;;;;43.10;21.90;;;;;;;;;;5112100;28;20064;-65
2021/11/17 17:07:16;;;;;;;43.53;23.90;;;;;;;;;;5110871;28;20023;-65
2021/11/17 17:09:42;;;;;;;50.08;25.67;;;;;;;;;;5112703;28;20026;-65
2021/11/17 17:12:11;;;;;;;48.47;30.65;;;;;;;;;;5109827;28;20104;-64
2021/11/17 17:14:37;;;;;;;51.83;25.80;;;;;;;;;;5107951;28;20490;-65
2021/11/17 17:17:03;;;;;;;48.42;27.50;;;;;;;;;;5108078;28;20039;-65